sensor_id;sensor_type;location;lat;lon;timestamp;temperature;humidity
30520;DHT22;17300;50.374;8.006;2024-03-06T00:02:04;13.00;52.90
30520;DHT22;17300;50.374;8.006;2024-03-06T00:04:31;13.00;52.90
30520;DHT22;17300;50.374;8.006;2024-03-06T00:06:58;13.00;52.90
30520;DHT22;17300;50.374;8.006;2024-03-06T00:09:25;12.90;52.80
30520;DHT22;17300;50.374;8.006;2024-03-06T00:11:52;12.90;52.80
30520;DHT22;17300;50.374;8.006;2024-03-06T00:14:19;12.90;52.80
30520;DHT22;17300;50.374;8.006;2024-03-06T00:16:48;12.90;52.90
30520;DHT22;17300;50.374;8.006;2024-03-06T00:19:16;12.80;52.80
30520;DHT22;17300;50.374;8.006;2024-03-06T00:21:43;12.90;52.90
30520;DHT22;17300;50.374;8.006;2024-03-06T00:24:11;12.80;52.80
30520;DHT22;17300;50.374;8.006;2024-03-06T00:26:39;12.80;53.40
30520;DHT22;17300;50.374;8.006;2024-03-06T00:29:06;12.80;52.70
30520;DHT22;17300;50.374;8.006;2024-03-06T00:31:33;12.80;52.70
30520;DHT22;17300;50.374;8.006;2024-03-06T00:34:01;12.70;52.70
30520;DHT22;17300;50.374;8.006;2024-03-06T00:36:27;12.70;52.80
30520;DHT22;17300;50.374;8.006;2024-03-06T00:38:54;12.70;52.80
30520;DHT22;17300;50.374;8.006;2024-03-06T00:41:21;12.70;52.80
30520;DHT22;17300;50.374;8.006;2024-03-06T00:43:48;12.60;52.60
30520;DHT22;17300;50.374;8.006;2024-03-06T00:46:15;12.60;52.60
30520;DHT22;17300;50.374;8.006;2024-03-06T00:48:42;12.60;52.60
30520;DHT22;17300;50.374;8.006;2024-03-06T00:51:10;12.60;52.60
30520;DHT22;17300;50.374;8.006;2024-03-06T00:53:37;12.50;52.60
30520;DHT22;17300;50.374;8.006;2024-03-06T00:56:04;12.50;52.60
30520;DHT22;17300;50.374;8.006;2024-03-06T00:58:31;12.50;52.60
30520;DHT22;17300;50.374;8.006;2024-03-06T01:00:58;12.50;52.60
30520;DHT22;17300;50.374;8.006;2024-03-06T01:03:25;12.50;52.60
30520;DHT22;17300;50.374;8.006;2024-03-06T01:05:52;12.40;52.60
30520;DHT22;17300;50.374;8.006;2024-03-06T01:08:21;12.40;52.60
30520;DHT22;17300;50.374;8.006;2024-03-06T01:10:50;12.40;52.60
30520;DHT22;17300;50.374;8.006;2024-03-06T01:13:17;12.40;52.70
30520;DHT22;17300;50.374;8.006;2024-03-06T01:15:44;12.30;52.60
30520;DHT22;17300;50.374;8.006;2024-03-06T01:18:11;12.30;52.60
30520;DHT22;17300;50.374;8.006;2024-03-06T01:20:37;12.30;52.60
30520;DHT22;17300;50.374;8.006;2024-03-06T01:23:05;12.30;52.50
30520;DHT22;17300;50.374;8.006;2024-03-06T01:25:33;12.20;52.40
30520;DHT22;17300;50.374;8.006;2024-03-06T01:28:00;12.20;52.40
30520;DHT22;17300;50.374;8.006;2024-03-06T01:30:26;12.20;52.30
30520;DHT22;17300;50.374;8.006;2024-03-06T01:32:53;12.20;52.40
30520;DHT22;17300;50.374;8.006;2024-03-06T01:35:19;12.10;52.30
30520;DHT22;17300;50.374;8.006;2024-03-06T01:37:46;12.10;52.40
30520;DHT22;17300;50.374;8.006;2024-03-06T01:40:13;12.10;52.30
30520;DHT22;17300;50.374;8.006;2024-03-06T01:42:41;12.00;52.10
30520;DHT22;17300;50.374;8.006;2024-03-06T01:45:08;12.00;52.10
30520;DHT22;17300;50.374;8.006;2024-03-06T01:47:35;12.00;52.10
30520;DHT22;17300;50.374;8.006;2024-03-06T01:50:02;12.00;52.00
30520;DHT22;17300;50.374;8.006;2024-03-06T01:52:31;11.90;52.00
30520;DHT22;17300;50.374;8.006;2024-03-06T01:54:58;11.90;52.10
30520;DHT22;17300;50.374;8.006;2024-03-06T01:57:25;11.90;52.00
30520;DHT22;17300;50.374;8.006;2024-03-06T01:59:53;11.90;52.10
30520;DHT22;17300;50.374;8.006;2024-03-06T02:02:20;11.80;52.00
30520;DHT22;17300;50.374;8.006;2024-03-06T02:04:47;11.80;52.00
30520;DHT22;17300;50.374;8.006;2024-03-06T02:07:14;11.80;52.00
30520;DHT22;17300;50.374;8.006;2024-03-06T02:09:43;11.80;52.00
30520;DHT22;17300;50.374;8.006;2024-03-06T02:12:09;11.80;52.00
30520;DHT22;17300;50.374;8.006;2024-03-06T02:14:37;11.80;51.90
30520;DHT22;17300;50.374;8.006;2024-03-06T02:17:06;11.70;51.80
30520;DHT22;17300;50.374;8.006;2024-03-06T02:19:40;11.70;51.80
30520;DHT22;17300;50.374;8.006;2024-03-06T02:22:09;11.70;51.80
30520;DHT22;17300;50.374;8.006;2024-03-06T02:24:36;11.70;51.70
30520;DHT22;17300;50.374;8.006;2024-03-06T02:27:03;11.70;51.70
30520;DHT22;17300;50.374;8.006;2024-03-06T02:29:31;11.60;51.70
30520;DHT22;17300;50.374;8.006;2024-03-06T02:31:58;11.60;51.70
30520;DHT22;17300;50.374;8.006;2024-03-06T02:34:24;11.60;51.70
30520;DHT22;17300;50.374;8.006;2024-03-06T02:36:51;11.60;51.70
30520;DHT22;17300;50.374;8.006;2024-03-06T02:39:19;11.60;51.60
30520;DHT22;17300;50.374;8.006;2024-03-06T02:41:46;11.60;51.50
30520;DHT22;17300;50.374;8.006;2024-03-06T02:44:14;11.60;51.50
30520;DHT22;17300;50.374;8.006;2024-03-06T02:46:46;11.60;51.50
30520;DHT22;17300;50.374;8.006;2024-03-06T02:49:13;11.60;51.60
30520;DHT22;17300;50.374;8.006;2024-03-06T02:51:40;11.60;51.50
30520;DHT22;17300;50.374;8.006;2024-03-06T02:54:06;11.60;51.60
30520;DHT22;17300;50.374;8.006;2024-03-06T02:56:34;11.60;51.70
30520;DHT22;17300;50.374;8.006;2024-03-06T02:59:01;11.60;51.80
30520;DHT22;17300;50.374;8.006;2024-03-06T03:01:29;11.60;51.80
30520;DHT22;17300;50.374;8.006;2024-03-06T03:03:56;11.60;51.80
30520;DHT22;17300;50.374;8.006;2024-03-06T03:06:23;11.70;51.90
30520;DHT22;17300;50.374;8.006;2024-03-06T03:08:50;11.60;51.80
30520;DHT22;17300;50.374;8.006;2024-03-06T03:11:17;11.70;51.80
30520;DHT22;17300;50.374;8.006;2024-03-06T03:13:45;11.70;51.80
30520;DHT22;17300;50.374;8.006;2024-03-06T03:16:15;11.70;51.80
30520;DHT22;17300;50.374;8.006;2024-03-06T03:18:43;11.70;51.80
30520;DHT22;17300;50.374;8.006;2024-03-06T03:21:10;11.70;51.70
30520;DHT22;17300;50.374;8.006;2024-03-06T03:23:37;11.70;51.70
30520;DHT22;17300;50.374;8.006;2024-03-06T03:26:04;11.70;51.70
30520;DHT22;17300;50.374;8.006;2024-03-06T03:28:31;11.60;51.60
30520;DHT22;17300;50.374;8.006;2024-03-06T03:31:00;11.60;51.50
30520;DHT22;17300;50.374;8.006;2024-03-06T03:33:26;11.60;51.40
30520;DHT22;17300;50.374;8.006;2024-03-06T03:35:53;11.60;51.50
30520;DHT22;17300;50.374;8.006;2024-03-06T03:38:20;11.60;51.40
30520;DHT22;17300;50.374;8.006;2024-03-06T03:40:46;11.60;52.10
30520;DHT22;17300;50.374;8.006;2024-03-06T03:43:13;11.60;51.50
30520;DHT22;17300;50.374;8.006;2024-03-06T03:45:40;11.60;51.60
30520;DHT22;17300;50.374;8.006;2024-03-06T03:48:08;11.60;51.60
30520;DHT22;17300;50.374;8.006;2024-03-06T03:50:34;11.60;51.70
30520;DHT22;17300;50.374;8.006;2024-03-06T03:53:01;11.60;51.70
30520;DHT22;17300;50.374;8.006;2024-03-06T03:55:28;11.60;51.70
30520;DHT22;17300;50.374;8.006;2024-03-06T03:57:55;11.60;51.70
30520;DHT22;17300;50.374;8.006;2024-03-06T04:00:22;11.60;51.80
30520;DHT22;17300;50.374;8.006;2024-03-06T04:02:48;11.60;51.70
30520;DHT22;17300;50.374;8.006;2024-03-06T04:05:17;11.60;51.70
30520;DHT22;17300;50.374;8.006;2024-03-06T04:07:43;11.60;51.60
30520;DHT22;17300;50.374;8.006;2024-03-06T04:10:11;11.50;51.60
30520;DHT22;17300;50.374;8.006;2024-03-06T04:12:38;11.50;51.60
30520;DHT22;17300;50.374;8.006;2024-03-06T04:15:05;11.50;51.60
30520;DHT22;17300;50.374;8.006;2024-03-06T04:17:34;11.50;51.70
30520;DHT22;17300;50.374;8.006;2024-03-06T04:20:01;11.50;51.70
30520;DHT22;17300;50.374;8.006;2024-03-06T04:22:30;11.50;51.60
30520;DHT22;17300;50.374;8.006;2024-03-06T04:24:57;11.50;51.60
30520;DHT22;17300;50.374;8.006;2024-03-06T04:27:24;11.50;51.70
30520;DHT22;17300;50.374;8.006;2024-03-06T04:29:51;11.50;51.90
30520;DHT22;17300;50.374;8.006;2024-03-06T04:32:18;11.50;51.80
30520;DHT22;17300;50.374;8.006;2024-03-06T04:34:44;11.50;51.80
30520;DHT22;17300;50.374;8.006;2024-03-06T04:37:12;11.50;51.80
30520;DHT22;17300;50.374;8.006;2024-03-06T04:39:40;11.50;51.90
30520;DHT22;17300;50.374;8.006;2024-03-06T04:42:07;11.50;51.80
30520;DHT22;17300;50.374;8.006;2024-03-06T04:44:34;11.50;51.70
30520;DHT22;17300;50.374;8.006;2024-03-06T04:47:00;11.50;51.70
30520;DHT22;17300;50.374;8.006;2024-03-06T04:49:27;11.50;51.70
30520;DHT22;17300;50.374;8.006;2024-03-06T04:51:54;11.50;51.70
30520;DHT22;17300;50.374;8.006;2024-03-06T04:54:21;11.40;51.50
30520;DHT22;17300;50.374;8.006;2024-03-06T04:56:49;11.40;51.50
30520;DHT22;17300;50.374;8.006;2024-03-06T04:59:15;11.40;51.60
30520;DHT22;17300;50.374;8.006;2024-03-06T05:01:42;11.40;51.60
30520;DHT22;17300;50.374;8.006;2024-03-06T05:04:09;11.40;51.70
30520;DHT22;17300;50.374;8.006;2024-03-06T05:06:37;11.40;51.70
30520;DHT22;17300;50.374;8.006;2024-03-06T05:09:04;11.40;51.70
30520;DHT22;17300;50.374;8.006;2024-03-06T05:11:31;11.40;51.60
30520;DHT22;17300;50.374;8.006;2024-03-06T05:13:59;11.40;51.70
30520;DHT22;17300;50.374;8.006;2024-03-06T05:16:26;11.40;51.60
30520;DHT22;17300;50.374;8.006;2024-03-06T05:18:53;11.30;51.50
30520;DHT22;17300;50.374;8.006;2024-03-06T05:21:20;11.30;51.50
30520;DHT22;17300;50.374;8.006;2024-03-06T05:23:47;11.30;51.50
30520;DHT22;17300;50.374;8.006;2024-03-06T05:26:15;11.30;51.50
30520;DHT22;17300;50.374;8.006;2024-03-06T05:28:41;11.30;51.50
30520;DHT22;17300;50.374;8.006;2024-03-06T05:31:17;11.30;51.50
30520;DHT22;17300;50.374;8.006;2024-03-06T05:33:47;11.20;51.40
30520;DHT22;17300;50.374;8.006;2024-03-06T05:36:13;11.20;51.50
30520;DHT22;17300;50.374;8.006;2024-03-06T05:38:40;11.20;51.50
30520;DHT22;17300;50.374;8.006;2024-03-06T05:41:08;11.20;51.60
30520;DHT22;17300;50.374;8.006;2024-03-06T05:43:35;11.20;51.70
30520;DHT22;17300;50.374;8.006;2024-03-06T05:46:01;11.20;51.70
30520;DHT22;17300;50.374;8.006;2024-03-06T05:48:29;11.10;51.70
30520;DHT22;17300;50.374;8.006;2024-03-06T05:50:56;11.10;51.60
30520;DHT22;17300;50.374;8.006;2024-03-06T05:53:23;11.10;51.50
30520;DHT22;17300;50.374;8.006;2024-03-06T05:55:51;11.10;51.50
30520;DHT22;17300;50.374;8.006;2024-03-06T05:58:17;11.10;51.50
30520;DHT22;17300;50.374;8.006;2024-03-06T06:00:44;11.00;51.50
30520;DHT22;17300;50.374;8.006;2024-03-06T06:03:10;11.00;51.60
30520;DHT22;17300;50.374;8.006;2024-03-06T06:05:39;11.00;51.60
30520;DHT22;17300;50.374;8.006;2024-03-06T06:08:06;11.00;51.80
30520;DHT22;17300;50.374;8.006;2024-03-06T06:10:33;10.90;51.70
30520;DHT22;17300;50.374;8.006;2024-03-06T06:13:00;11.00;51.90
30520;DHT22;17300;50.374;8.006;2024-03-06T06:15:28;11.00;51.90
30520;DHT22;17300;50.374;8.006;2024-03-06T06:17:55;11.00;52.00
30520;DHT22;17300;50.374;8.006;2024-03-06T06:20:22;11.00;52.10
30520;DHT22;17300;50.374;8.006;2024-03-06T06:22:51;11.00;51.90
30520;DHT22;17300;50.374;8.006;2024-03-06T06:25:18;11.00;51.90
30520;DHT22;17300;50.374;8.006;2024-03-06T06:27:44;11.00;51.80
30520;DHT22;17300;50.374;8.006;2024-03-06T06:30:12;11.10;51.90
30520;DHT22;17300;50.374;8.006;2024-03-06T06:32:38;11.10;52.00
30520;DHT22;17300;50.374;8.006;2024-03-06T06:35:06;11.10;52.00
30520;DHT22;17300;50.374;8.006;2024-03-06T06:37:33;11.10;52.00
30520;DHT22;17300;50.374;8.006;2024-03-06T06:40:01;11.10;51.90
30520;DHT22;17300;50.374;8.006;2024-03-06T06:42:31;11.10;52.00
30520;DHT22;17300;50.374;8.006;2024-03-06T06:44:58;11.20;52.10
30520;DHT22;17300;50.374;8.006;2024-03-06T06:47:25;11.20;51.90
30520;DHT22;17300;50.374;8.006;2024-03-06T06:49:52;11.20;51.90
30520;DHT22;17300;50.374;8.006;2024-03-06T06:52:19;11.20;51.80
30520;DHT22;17300;50.374;8.006;2024-03-06T06:54:46;11.20;51.70
30520;DHT22;17300;50.374;8.006;2024-03-06T06:57:15;11.30;51.70
30520;DHT22;17300;50.374;8.006;2024-03-06T06:59:42;11.30;51.80
30520;DHT22;17300;50.374;8.006;2024-03-06T07:02:08;11.20;51.80
30520;DHT22;17300;50.374;8.006;2024-03-06T07:04:35;11.30;51.90
30520;DHT22;17300;50.374;8.006;2024-03-06T07:07:02;11.30;51.90
30520;DHT22;17300;50.374;8.006;2024-03-06T07:09:29;11.30;51.90
30520;DHT22;17300;50.374;8.006;2024-03-06T07:11:56;11.30;52.00
30520;DHT22;17300;50.374;8.006;2024-03-06T07:14:24;11.30;52.10
30520;DHT22;17300;50.374;8.006;2024-03-06T07:16:50;11.30;52.30
30520;DHT22;17300;50.374;8.006;2024-03-06T07:19:17;11.30;52.30
30520;DHT22;17300;50.374;8.006;2024-03-06T07:21:44;11.30;52.30
30520;DHT22;17300;50.374;8.006;2024-03-06T07:24:11;11.30;52.30
30520;DHT22;17300;50.374;8.006;2024-03-06T07:26:37;11.30;52.30
30520;DHT22;17300;50.374;8.006;2024-03-06T07:29:04;11.30;52.40
30520;DHT22;17300;50.374;8.006;2024-03-06T07:31:39;11.40;52.50
30520;DHT22;17300;50.374;8.006;2024-03-06T07:34:07;11.40;52.60
30520;DHT22;17300;50.374;8.006;2024-03-06T07:36:33;11.50;52.70
30520;DHT22;17300;50.374;8.006;2024-03-06T07:39:00;11.50;52.70
30520;DHT22;17300;50.374;8.006;2024-03-06T07:41:27;11.50;52.60
30520;DHT22;17300;50.374;8.006;2024-03-06T07:43:53;11.50;52.60
30520;DHT22;17300;50.374;8.006;2024-03-06T07:46:20;11.50;52.60
30520;DHT22;17300;50.374;8.006;2024-03-06T07:48:48;11.50;52.70
30520;DHT22;17300;50.374;8.006;2024-03-06T07:51:16;11.60;52.90
30520;DHT22;17300;50.374;8.006;2024-03-06T07:53:43;11.50;52.90
30520;DHT22;17300;50.374;8.006;2024-03-06T07:56:10;11.60;52.90
30520;DHT22;17300;50.374;8.006;2024-03-06T07:58:38;11.60;53.00
30520;DHT22;17300;50.374;8.006;2024-03-06T08:01:05;11.60;53.10
30520;DHT22;17300;50.374;8.006;2024-03-06T08:03:33;11.60;53.10
30520;DHT22;17300;50.374;8.006;2024-03-06T08:06:01;11.70;53.70
30520;DHT22;17300;50.374;8.006;2024-03-06T08:08:29;11.70;53.20
30520;DHT22;17300;50.374;8.006;2024-03-06T08:10:56;11.80;53.30
30520;DHT22;17300;50.374;8.006;2024-03-06T08:13:30;11.80;53.40
30520;DHT22;17300;50.374;8.006;2024-03-06T08:16:12;11.80;53.40
30520;DHT22;17300;50.374;8.006;2024-03-06T08:18:39;11.90;53.40
30520;DHT22;17300;50.374;8.006;2024-03-06T08:21:07;11.90;53.40
30520;DHT22;17300;50.374;8.006;2024-03-06T08:23:37;11.90;53.40
30520;DHT22;17300;50.374;8.006;2024-03-06T08:26:04;12.00;53.50
30520;DHT22;17300;50.374;8.006;2024-03-06T08:28:30;12.00;53.30
30520;DHT22;17300;50.374;8.006;2024-03-06T08:30:57;12.00;53.30
30520;DHT22;17300;50.374;8.006;2024-03-06T08:37:16;12.10;53.40
30520;DHT22;17300;50.374;8.006;2024-03-06T08:39:43;12.10;53.20
30520;DHT22;17300;50.374;8.006;2024-03-06T08:42:11;12.10;53.20
30520;DHT22;17300;50.374;8.006;2024-03-06T08:44:42;12.10;53.20
30520;DHT22;17300;50.374;8.006;2024-03-06T08:47:28;12.10;53.20
30520;DHT22;17300;50.374;8.006;2024-03-06T08:50:20;12.20;53.20
30520;DHT22;17300;50.374;8.006;2024-03-06T08:52:48;12.20;53.20
30520;DHT22;17300;50.374;8.006;2024-03-06T08:55:15;12.20;53.30
30520;DHT22;17300;50.374;8.006;2024-03-06T08:58:10;12.20;53.30
30520;DHT22;17300;50.374;8.006;2024-03-06T09:04:28;12.30;53.20
30520;DHT22;17300;50.374;8.006;2024-03-06T09:06:58;12.40;53.20
30520;DHT22;17300;50.374;8.006;2024-03-06T09:09:31;12.40;53.10
30520;DHT22;17300;50.374;8.006;2024-03-06T09:11:59;12.40;53.10
30520;DHT22;17300;50.374;8.006;2024-03-06T09:14:26;12.40;53.10
30520;DHT22;17300;50.374;8.006;2024-03-06T09:16:52;12.40;53.10
30520;DHT22;17300;50.374;8.006;2024-03-06T09:19:19;12.40;53.20
30520;DHT22;17300;50.374;8.006;2024-03-06T09:21:46;12.50;53.90
30520;DHT22;17300;50.374;8.006;2024-03-06T09:24:13;12.50;53.30
30520;DHT22;17300;50.374;8.006;2024-03-06T09:26:50;12.50;53.30
30520;DHT22;17300;50.374;8.006;2024-03-06T09:29:26;12.50;53.20
30520;DHT22;17300;50.374;8.006;2024-03-06T09:31:53;12.60;53.20
30520;DHT22;17300;50.374;8.006;2024-03-06T09:34:19;12.60;53.30
30520;DHT22;17300;50.374;8.006;2024-03-06T09:36:48;12.60;53.30
30520;DHT22;17300;50.374;8.006;2024-03-06T09:39:15;12.60;53.30
30520;DHT22;17300;50.374;8.006;2024-03-06T09:41:44;12.60;53.20
30520;DHT22;17300;50.374;8.006;2024-03-06T09:44:11;12.70;53.30
30520;DHT22;17300;50.374;8.006;2024-03-06T09:46:40;12.70;53.30
30520;DHT22;17300;50.374;8.006;2024-03-06T09:49:08;12.70;53.20
30520;DHT22;17300;50.374;8.006;2024-03-06T09:51:37;12.80;53.30
30520;DHT22;17300;50.374;8.006;2024-03-06T09:54:07;12.80;53.20
30520;DHT22;17300;50.374;8.006;2024-03-06T11:04:32;14.70;54.10
30520;DHT22;17300;50.374;8.006;2024-03-06T11:07:02;14.80;54.10
30520;DHT22;17300;50.374;8.006;2024-03-06T11:09:33;15.00;55.10
30520;DHT22;17300;50.374;8.006;2024-03-06T11:12:01;15.20;55.40
30520;DHT22;17300;50.374;8.006;2024-03-06T11:14:31;15.40;55.20
30520;DHT22;17300;50.374;8.006;2024-03-06T11:16:59;15.50;54.70
30520;DHT22;17300;50.374;8.006;2024-03-06T11:19:28;15.80;55.60
30520;DHT22;17300;50.374;8.006;2024-03-06T11:21:55;16.20;57.20
30520;DHT22;17300;50.374;8.006;2024-03-06T11:24:24;16.70;58.50
30520;DHT22;17300;50.374;8.006;2024-03-06T11:26:59;17.30;59.30
30520;DHT22;17300;50.374;8.006;2024-03-06T11:29:28;17.90;59.60
30520;DHT22;17300;50.374;8.006;2024-03-06T11:32:00;18.50;59.30
30520;DHT22;17300;50.374;8.006;2024-03-06T11:34:29;19.20;59.00
30520;DHT22;17300;50.374;8.006;2024-03-06T11:36:58;19.90;59.90
30520;DHT22;17300;50.374;8.006;2024-03-06T11:39:28;20.70;60.30
30520;DHT22;17300;50.374;8.006;2024-03-06T11:41:56;21.60;60.60
30520;DHT22;17300;50.374;8.006;2024-03-06T11:44:23;22.30;60.90
30520;DHT22;17300;50.374;8.006;2024-03-06T11:46:57;23.20;60.30
30520;DHT22;17300;50.374;8.006;2024-03-06T11:49:25;24.10;58.00
30520;DHT22;17300;50.374;8.006;2024-03-06T11:51:56;24.70;58.30
30520;DHT22;17300;50.374;8.006;2024-03-06T11:54:24;25.50;57.00
30520;DHT22;17300;50.374;8.006;2024-03-06T11:56:53;26.10;57.00
30520;DHT22;17300;50.374;8.006;2024-03-06T11:59:21;26.80;55.50
30520;DHT22;17300;50.374;8.006;2024-03-06T12:01:48;27.40;54.50
30520;DHT22;17300;50.374;8.006;2024-03-06T12:04:15;27.90;53.80
30520;DHT22;17300;50.374;8.006;2024-03-06T12:06:42;28.40;52.70
30520;DHT22;17300;50.374;8.006;2024-03-06T12:09:10;28.90;51.40
30520;DHT22;17300;50.374;8.006;2024-03-06T12:11:37;29.40;50.30
30520;DHT22;17300;50.374;8.006;2024-03-06T12:14:04;29.80;49.60
30520;DHT22;17300;50.374;8.006;2024-03-06T12:16:31;30.10;48.70
30520;DHT22;17300;50.374;8.006;2024-03-06T12:18:58;30.50;48.00
30520;DHT22;17300;50.374;8.006;2024-03-06T12:21:27;30.80;47.00
30520;DHT22;17300;50.374;8.006;2024-03-06T12:24:02;31.10;45.80
30520;DHT22;17300;50.374;8.006;2024-03-06T12:26:31;31.40;43.90
30520;DHT22;17300;50.374;8.006;2024-03-06T12:29:07;31.50;44.30
30520;DHT22;17300;50.374;8.006;2024-03-06T12:31:35;31.70;42.40
30520;DHT22;17300;50.374;8.006;2024-03-06T12:34:02;31.80;42.60
30520;DHT22;17300;50.374;8.006;2024-03-06T12:36:30;31.90;41.80
30520;DHT22;17300;50.374;8.006;2024-03-06T12:38:59;32.00;41.40
30520;DHT22;17300;50.374;8.006;2024-03-06T12:41:26;32.10;41.20
30520;DHT22;17300;50.374;8.006;2024-03-06T12:43:54;32.20;41.00
30520;DHT22;17300;50.374;8.006;2024-03-06T12:46:22;32.30;40.60
30520;DHT22;17300;50.374;8.006;2024-03-06T12:48:49;32.50;40.20
30520;DHT22;17300;50.374;8.006;2024-03-06T12:51:16;32.60;39.60
30520;DHT22;17300;50.374;8.006;2024-03-06T12:53:43;32.70;39.10
30520;DHT22;17300;50.374;8.006;2024-03-06T12:56:09;32.80;38.70
30520;DHT22;17300;50.374;8.006;2024-03-06T12:58:36;32.90;38.10
30520;DHT22;17300;50.374;8.006;2024-03-06T13:01:04;33.00;37.80
30520;DHT22;17300;50.374;8.006;2024-03-06T13:03:31;33.00;37.00
30520;DHT22;17300;50.374;8.006;2024-03-06T13:05:58;33.00;36.70
30520;DHT22;17300;50.374;8.006;2024-03-06T13:08:28;33.00;36.40
30520;DHT22;17300;50.374;8.006;2024-03-06T13:10:55;33.00;36.20
30520;DHT22;17300;50.374;8.006;2024-03-06T13:13:21;33.00;35.90
30520;DHT22;17300;50.374;8.006;2024-03-06T13:16:09;33.00;35.30
30520;DHT22;17300;50.374;8.006;2024-03-06T13:18:37;32.70;33.60
30520;DHT22;17300;50.374;8.006;2024-03-06T13:21:04;32.60;34.40
30520;DHT22;17300;50.374;8.006;2024-03-06T13:23:31;32.50;34.50
30520;DHT22;17300;50.374;8.006;2024-03-06T13:25:57;32.40;34.40
30520;DHT22;17300;50.374;8.006;2024-03-06T13:28:24;32.20;33.70
30520;DHT22;17300;50.374;8.006;2024-03-06T13:30:51;31.90;32.80
30520;DHT22;17300;50.374;8.006;2024-03-06T13:33:19;31.60;32.30
30520;DHT22;17300;50.374;8.006;2024-03-06T13:35:46;31.20;32.50
30520;DHT22;17300;50.374;8.006;2024-03-06T13:38:12;31.00;33.30
30520;DHT22;17300;50.374;8.006;2024-03-06T13:40:39;30.90;34.10
30520;DHT22;17300;50.374;8.006;2024-03-06T13:43:06;30.90;34.60
30520;DHT22;17300;50.374;8.006;2024-03-06T13:45:35;30.90;34.60
30520;DHT22;17300;50.374;8.006;2024-03-06T13:48:03;30.90;34.20
30520;DHT22;17300;50.374;8.006;2024-03-06T13:50:40;30.80;33.10
30520;DHT22;17300;50.374;8.006;2024-03-06T13:53:06;30.60;31.80
30520;DHT22;17300;50.374;8.006;2024-03-06T13:55:46;30.20;31.40
30520;DHT22;17300;50.374;8.006;2024-03-06T13:58:25;29.60;30.60
30520;DHT22;17300;50.374;8.006;2024-03-06T14:01:10;29.00;30.20
30520;DHT22;17300;50.374;8.006;2024-03-06T14:03:51;28.30;30.40
30520;DHT22;17300;50.374;8.006;2024-03-06T14:06:19;27.70;30.20
30520;DHT22;17300;50.374;8.006;2024-03-06T14:09:05;27.10;30.20
30520;DHT22;17300;50.374;8.006;2024-03-06T14:17:53;25.30;31.10
30520;DHT22;17300;50.374;8.006;2024-03-06T14:20:44;24.80;31.50
30520;DHT22;17300;50.374;8.006;2024-03-06T14:27:07;23.90;32.10
30520;DHT22;17300;50.374;8.006;2024-03-06T14:29:45;23.50;32.40
30520;DHT22;17300;50.374;8.006;2024-03-06T14:32:12;23.10;32.50
30520;DHT22;17300;50.374;8.006;2024-03-06T14:35:28;22.80;32.60
30520;DHT22;17300;50.374;8.006;2024-03-06T14:41:35;22.20;33.20
30520;DHT22;17300;50.374;8.006;2024-03-06T14:44:09;22.00;33.70
30520;DHT22;17300;50.374;8.006;2024-03-06T14:47:07;21.80;33.60
30520;DHT22;17300;50.374;8.006;2024-03-06T14:50:17;21.60;34.00
30520;DHT22;17300;50.374;8.006;2024-03-06T15:23:40;19.80;35.50
30520;DHT22;17300;50.374;8.006;2024-03-06T15:26:06;19.70;35.30
30520;DHT22;17300;50.374;8.006;2024-03-06T15:28:33;19.70;35.50
30520;DHT22;17300;50.374;8.006;2024-03-06T15:31:00;19.60;35.50
30520;DHT22;17300;50.374;8.006;2024-03-06T15:33:29;19.50;35.70
30520;DHT22;17300;50.374;8.006;2024-03-06T15:35:56;19.40;35.80
30520;DHT22;17300;50.374;8.006;2024-03-06T15:38:24;19.40;36.00
30520;DHT22;17300;50.374;8.006;2024-03-06T15:44:02;19.30;36.60
30520;DHT22;17300;50.374;8.006;2024-03-06T15:46:29;19.20;36.30
30520;DHT22;17300;50.374;8.006;2024-03-06T15:48:56;19.20;36.40
30520;DHT22;17300;50.374;8.006;2024-03-06T15:51:23;19.10;36.40
30520;DHT22;17300;50.374;8.006;2024-03-06T15:53:50;19.10;36.40
30520;DHT22;17300;50.374;8.006;2024-03-06T15:56:18;19.00;36.60
30520;DHT22;17300;50.374;8.006;2024-03-06T15:58:44;19.00;36.80
30520;DHT22;17300;50.374;8.006;2024-03-06T16:01:12;18.90;36.80
30520;DHT22;17300;50.374;8.006;2024-03-06T16:03:39;18.90;36.80
30520;DHT22;17300;50.374;8.006;2024-03-06T16:06:06;18.90;36.90
30520;DHT22;17300;50.374;8.006;2024-03-06T16:08:33;18.80;36.90
30520;DHT22;17300;50.374;8.006;2024-03-06T16:11:00;18.80;37.00
30520;DHT22;17300;50.374;8.006;2024-03-06T16:13:27;18.80;37.10
30520;DHT22;17300;50.374;8.006;2024-03-06T16:15:53;18.80;37.20
30520;DHT22;17300;50.374;8.006;2024-03-06T16:18:22;18.70;37.20
30520;DHT22;17300;50.374;8.006;2024-03-06T16:20:48;18.70;37.20
30520;DHT22;17300;50.374;8.006;2024-03-06T16:23:15;18.70;37.30
30520;DHT22;17300;50.374;8.006;2024-03-06T16:25:41;18.60;37.30
30520;DHT22;17300;50.374;8.006;2024-03-06T16:28:08;18.60;37.40
30520;DHT22;17300;50.374;8.006;2024-03-06T16:30:35;18.60;37.50
30520;DHT22;17300;50.374;8.006;2024-03-06T16:33:02;18.50;37.50
30520;DHT22;17300;50.374;8.006;2024-03-06T16:35:30;18.50;37.70
30520;DHT22;17300;50.374;8.006;2024-03-06T16:37:58;18.40;37.60
30520;DHT22;17300;50.374;8.006;2024-03-06T16:40:24;18.40;38.30
30520;DHT22;17300;50.374;8.006;2024-03-06T16:42:51;18.30;37.60
30520;DHT22;17300;50.374;8.006;2024-03-06T16:45:18;18.20;37.50
30520;DHT22;17300;50.374;8.006;2024-03-06T16:47:46;18.20;37.60
30520;DHT22;17300;50.374;8.006;2024-03-06T16:50:13;18.20;37.70
30520;DHT22;17300;50.374;8.006;2024-03-06T16:52:42;18.10;37.60
30520;DHT22;17300;50.374;8.006;2024-03-06T16:55:08;18.00;37.60
30520;DHT22;17300;50.374;8.006;2024-03-06T16:57:35;18.00;37.70
30520;DHT22;17300;50.374;8.006;2024-03-06T17:00:03;17.90;37.70
30520;DHT22;17300;50.374;8.006;2024-03-06T17:02:30;17.80;37.70
30520;DHT22;17300;50.374;8.006;2024-03-06T17:04:57;17.80;37.80
30520;DHT22;17300;50.374;8.006;2024-03-06T17:07:24;17.70;37.70
30520;DHT22;17300;50.374;8.006;2024-03-06T17:09:52;17.70;37.80
30520;DHT22;17300;50.374;8.006;2024-03-06T17:12:18;17.60;37.80
30520;DHT22;17300;50.374;8.006;2024-03-06T17:14:45;17.60;37.80
30520;DHT22;17300;50.374;8.006;2024-03-06T17:17:12;17.50;37.90
30520;DHT22;17300;50.374;8.006;2024-03-06T17:19:39;17.40;37.90
30520;DHT22;17300;50.374;8.006;2024-03-06T17:22:06;17.40;38.00
30520;DHT22;17300;50.374;8.006;2024-03-06T17:24:34;17.40;38.10
30520;DHT22;17300;50.374;8.006;2024-03-06T17:27:02;17.30;38.20
30520;DHT22;17300;50.374;8.006;2024-03-06T17:29:29;17.20;38.70
30520;DHT22;17300;50.374;8.006;2024-03-06T17:31:55;17.20;38.30
30520;DHT22;17300;50.374;8.006;2024-03-06T17:34:22;17.20;38.40
30520;DHT22;17300;50.374;8.006;2024-03-06T17:36:49;17.10;38.40
30520;DHT22;17300;50.374;8.006;2024-03-06T17:39:15;17.00;38.40
30520;DHT22;17300;50.374;8.006;2024-03-06T17:41:42;17.00;38.50